sensor_id;sensor_type;location;lat;lon;timestamp;P1;durP1;ratioP1;P2;durP2;ratioP2
59239;SDS011;45010;53.640;10.578;2024-01-10T00:01:34;2.60;;;2.35;;
59239;SDS011;45010;53.640;10.578;2024-01-10T00:04:34;2.83;;;2.63;;
59239;SDS011;45010;53.640;10.578;2024-01-10T00:07:34;2.50;;;2.25;;
59239;SDS011;45010;53.640;10.578;2024-01-10T00:10:36;2.75;;;2.55;;
59239;SDS011;45010;53.640;10.578;2024-01-10T00:13:36;2.40;;;2.20;;
59239;SDS011;45010;53.640;10.578;2024-01-10T00:16:37;3.50;;;2.78;;
59239;SDS011;45010;53.640;10.578;2024-01-10T00:19:37;2.80;;;2.60;;
59239;SDS011;45010;53.640;10.578;2024-01-10T00:22:38;2.70;;;2.50;;
59239;SDS011;45010;53.640;10.578;2024-01-10T00:25:38;2.75;;;2.53;;
59239;SDS011;45010;53.640;10.578;2024-01-10T00:28:39;2.88;;;2.67;;
59239;SDS011;45010;53.640;10.578;2024-01-10T00:31:39;2.83;;;2.58;;
59239;SDS011;45010;53.640;10.578;2024-01-10T00:34:41;2.88;;;2.58;;
59239;SDS011;45010;53.640;10.578;2024-01-10T00:37:41;3.10;;;2.80;;
59239;SDS011;45010;53.640;10.578;2024-01-10T00:40:42;3.92;;;3.05;;
59239;SDS011;45010;53.640;10.578;2024-01-10T00:43:42;3.25;;;2.95;;
59239;SDS011;45010;53.640;10.578;2024-01-10T00:46:42;3.65;;;2.65;;
59239;SDS011;45010;53.640;10.578;2024-01-10T00:49:43;2.90;;;2.60;;
59239;SDS011;45010;53.640;10.578;2024-01-10T00:52:44;2.70;;;2.50;;
59239;SDS011;45010;53.640;10.578;2024-01-10T00:55:45;2.60;;;2.40;;
59239;SDS011;45010;53.640;10.578;2024-01-10T00:58:45;3.13;;;2.60;;
59239;SDS011;45010;53.640;10.578;2024-01-10T01:01:45;3.00;;;2.70;;
59239;SDS011;45010;53.640;10.578;2024-01-10T01:04:45;3.80;;;2.95;;
59239;SDS011;45010;53.640;10.578;2024-01-10T01:07:46;2.60;;;2.40;;
59239;SDS011;45010;53.640;10.578;2024-01-10T01:10:46;2.83;;;2.63;;
59239;SDS011;45010;53.640;10.578;2024-01-10T01:13:46;3.08;;;2.78;;
59239;SDS011;45010;53.640;10.578;2024-01-10T01:16:47;2.97;;;2.67;;
59239;SDS011;45010;53.640;10.578;2024-01-10T01:19:47;3.55;;;3.15;;
59239;SDS011;45010;53.640;10.578;2024-01-10T01:22:47;3.40;;;3.10;;
59239;SDS011;45010;53.640;10.578;2024-01-10T01:25:48;3.10;;;2.80;;
59239;SDS011;45010;53.640;10.578;2024-01-10T01:28:49;3.15;;;2.85;;
59239;SDS011;45010;53.640;10.578;2024-01-10T01:31:49;3.28;;;2.97;;
59239;SDS011;45010;53.640;10.578;2024-01-10T01:34:50;3.25;;;2.95;;
59239;SDS011;45010;53.640;10.578;2024-01-10T01:37:50;3.00;;;2.70;;
59239;SDS011;45010;53.640;10.578;2024-01-10T01:40:51;3.08;;;2.80;;
59239;SDS011;45010;53.640;10.578;2024-01-10T01:43:52;3.20;;;2.90;;
59239;SDS011;45010;53.640;10.578;2024-01-10T01:46:52;3.40;;;3.10;;
59239;SDS011;45010;53.640;10.578;2024-01-10T01:49:52;3.03;;;2.72;;
59239;SDS011;45010;53.640;10.578;2024-01-10T01:52:53;3.38;;;2.88;;
59239;SDS011;45010;53.640;10.578;2024-01-10T01:55:53;2.92;;;2.72;;
59239;SDS011;45010;53.640;10.578;2024-01-10T01:58:54;3.00;;;2.78;;
59239;SDS011;45010;53.640;10.578;2024-01-10T02:01:55;3.08;;;2.88;;
59239;SDS011;45010;53.640;10.578;2024-01-10T02:04:58;3.10;;;2.80;;
59239;SDS011;45010;53.640;10.578;2024-01-10T02:07:58;3.33;;;3.03;;
59239;SDS011;45010;53.640;10.578;2024-01-10T02:10:59;2.80;;;2.42;;
59239;SDS011;45010;53.640;10.578;2024-01-10T02:14:01;3.40;;;3.10;;
59239;SDS011;45010;53.640;10.578;2024-01-10T02:17:01;3.17;;;2.78;;
59239;SDS011;45010;53.640;10.578;2024-01-10T02:20:11;3.33;;;3.03;;
59239;SDS011;45010;53.640;10.578;2024-01-10T02:23:13;3.20;;;2.90;;
59239;SDS011;45010;53.640;10.578;2024-01-10T02:26:14;3.25;;;2.95;;
59239;SDS011;45010;53.640;10.578;2024-01-10T02:29:15;3.35;;;3.05;;
59239;SDS011;45010;53.640;10.578;2024-01-10T02:32:15;3.08;;;2.78;;
59239;SDS011;45010;53.640;10.578;2024-01-10T02:35:16;2.78;;;2.58;;
59239;SDS011;45010;53.640;10.578;2024-01-10T02:38:16;3.20;;;2.90;;
59239;SDS011;45010;53.640;10.578;2024-01-10T02:41:17;2.78;;;2.58;;
59239;SDS011;45010;53.640;10.578;2024-01-10T02:44:18;3.05;;;2.75;;
59239;SDS011;45010;53.640;10.578;2024-01-10T02:47:19;2.67;;;2.47;;
59239;SDS011;45010;53.640;10.578;2024-01-10T02:50:20;3.13;;;2.83;;
59239;SDS011;45010;53.640;10.578;2024-01-10T02:53:20;3.25;;;2.67;;
59239;SDS011;45010;53.640;10.578;2024-01-10T02:56:20;2.42;;;2.22;;
59239;SDS011;45010;53.640;10.578;2024-01-10T02:59:21;2.72;;;2.53;;
59239;SDS011;45010;53.640;10.578;2024-01-10T03:02:21;2.92;;;2.70;;
59239;SDS011;45010;53.640;10.578;2024-01-10T03:05:23;2.70;;;2.50;;
59239;SDS011;45010;53.640;10.578;2024-01-10T03:08:23;2.78;;;2.45;;
59239;SDS011;45010;53.640;10.578;2024-01-10T03:11:24;2.60;;;2.40;;
59239;SDS011;45010;53.640;10.578;2024-01-10T03:14:24;2.90;;;2.70;;
59239;SDS011;45010;53.640;10.578;2024-01-10T03:17:25;2.97;;;2.67;;
59239;SDS011;45010;53.640;10.578;2024-01-10T03:20:25;3.10;;;2.63;;
59239;SDS011;45010;53.640;10.578;2024-01-10T03:23:25;2.90;;;2.28;;
59239;SDS011;45010;53.640;10.578;2024-01-10T03:26:27;2.40;;;2.20;;
59239;SDS011;45010;53.640;10.578;2024-01-10T03:29:30;2.63;;;2.20;;
59239;SDS011;45010;53.640;10.578;2024-01-10T03:32:30;2.47;;;2.28;;
59239;SDS011;45010;53.640;10.578;2024-01-10T03:35:30;2.53;;;2.33;;
59239;SDS011;45010;53.640;10.578;2024-01-10T03:38:31;3.20;;;2.47;;
59239;SDS011;45010;53.640;10.578;2024-01-10T03:41:31;3.13;;;2.20;;
59239;SDS011;45010;53.640;10.578;2024-01-10T03:44:31;2.50;;;2.28;;
59239;SDS011;45010;53.640;10.578;2024-01-10T03:47:32;2.63;;;2.30;;
59239;SDS011;45010;53.640;10.578;2024-01-10T03:50:32;2.45;;;2.25;;
59239;SDS011;45010;53.640;10.578;2024-01-10T03:53:32;2.28;;;2.08;;
59239;SDS011;45010;53.640;10.578;2024-01-10T03:56:33;2.75;;;2.05;;
59239;SDS011;45010;53.640;10.578;2024-01-10T03:59:33;2.45;;;2.25;;
59239;SDS011;45010;53.640;10.578;2024-01-10T04:02:33;2.60;;;2.40;;
59239;SDS011;45010;53.640;10.578;2024-01-10T04:05:34;2.13;;;1.92;;
59239;SDS011;45010;53.640;10.578;2024-01-10T04:08:34;2.60;;;2.40;;
59239;SDS011;45010;53.640;10.578;2024-01-10T04:11:34;2.63;;;2.42;;
59239;SDS011;45010;53.640;10.578;2024-01-10T04:14:35;2.63;;;2.10;;
59239;SDS011;45010;53.640;10.578;2024-01-10T04:17:35;2.20;;;2.00;;
59239;SDS011;45010;53.640;10.578;2024-01-10T04:20:35;2.28;;;2.08;;
59239;SDS011;45010;53.640;10.578;2024-01-10T04:23:36;2.13;;;1.95;;
59239;SDS011;45010;53.640;10.578;2024-01-10T04:26:36;2.30;;;2.10;;
59239;SDS011;45010;53.640;10.578;2024-01-10T04:29:37;2.13;;;1.92;;
59239;SDS011;45010;53.640;10.578;2024-01-10T04:32:37;2.00;;;1.80;;
59239;SDS011;45010;53.640;10.578;2024-01-10T04:35:38;2.00;;;1.77;;
59239;SDS011;45010;53.640;10.578;2024-01-10T04:38:38;2.78;;;1.88;;
59239;SDS011;45010;53.640;10.578;2024-01-10T04:41:38;1.70;;;1.60;;
59239;SDS011;45010;53.640;10.578;2024-01-10T04:44:39;2.38;;;2.17;;
59239;SDS011;45010;53.640;10.578;2024-01-10T04:47:40;1.80;;;1.70;;
59239;SDS011;45010;53.640;10.578;2024-01-10T04:50:40;2.15;;;1.95;;
59239;SDS011;45010;53.640;10.578;2024-01-10T04:53:40;2.45;;;2.22;;
59239;SDS011;45010;53.640;10.578;2024-01-10T04:56:41;1.67;;;1.58;;
59239;SDS011;45010;53.640;10.578;2024-01-10T04:59:41;2.42;;;2.22;;
59239;SDS011;45010;53.640;10.578;2024-01-10T05:02:41;2.13;;;1.92;;
59239;SDS011;45010;53.640;10.578;2024-01-10T05:05:42;1.70;;;1.60;;
59239;SDS011;45010;53.640;10.578;2024-01-10T05:08:42;2.10;;;1.90;;
59239;SDS011;45010;53.640;10.578;2024-01-10T05:11:42;2.42;;;2.22;;
59239;SDS011;45010;53.640;10.578;2024-01-10T05:14:43;2.08;;;1.88;;
59239;SDS011;45010;53.640;10.578;2024-01-10T05:17:43;1.73;;;1.63;;
59239;SDS011;45010;53.640;10.578;2024-01-10T05:20:44;1.90;;;1.77;;
59239;SDS011;45010;53.640;10.578;2024-01-10T05:23:44;1.85;;;1.70;;
59239;SDS011;45010;53.640;10.578;2024-01-10T05:26:45;2.03;;;1.80;;
59239;SDS011;45010;53.640;10.578;2024-01-10T05:29:45;1.75;;;1.65;;
59239;SDS011;45010;53.640;10.578;2024-01-10T05:32:47;2.28;;;1.83;;
59239;SDS011;45010;53.640;10.578;2024-01-10T05:35:47;1.77;;;1.67;;
59239;SDS011;45010;53.640;10.578;2024-01-10T05:38:48;2.80;;;1.77;;
59239;SDS011;45010;53.640;10.578;2024-01-10T05:41:48;1.88;;;1.77;;
59239;SDS011;45010;53.640;10.578;2024-01-10T05:44:48;1.90;;;1.70;;
59239;SDS011;45010;53.640;10.578;2024-01-10T05:47:49;2.22;;;1.70;;
59239;SDS011;45010;53.640;10.578;2024-01-10T05:50:49;1.88;;;1.70;;
59239;SDS011;45010;53.640;10.578;2024-01-10T05:53:51;1.42;;;1.33;;
59239;SDS011;45010;53.640;10.578;2024-01-10T05:56:51;1.58;;;1.42;;
59239;SDS011;45010;53.640;10.578;2024-01-10T05:59:51;1.70;;;1.60;;
59239;SDS011;45010;53.640;10.578;2024-01-10T06:02:55;1.75;;;1.65;;
59239;SDS011;45010;53.640;10.578;2024-01-10T06:05:56;1.55;;;1.45;;
59239;SDS011;45010;53.640;10.578;2024-01-10T06:08:56;3.08;;;1.77;;
59239;SDS011;45010;53.640;10.578;2024-01-10T06:11:56;1.88;;;1.67;;
59239;SDS011;45010;53.640;10.578;2024-01-10T06:14:57;1.83;;;1.63;;
59239;SDS011;45010;53.640;10.578;2024-01-10T06:17:57;1.60;;;1.45;;
59239;SDS011;45010;53.640;10.578;2024-01-10T06:20:58;2.33;;;1.45;;
59239;SDS011;45010;53.640;10.578;2024-01-10T06:23:58;1.58;;;1.48;;
59239;SDS011;45010;53.640;10.578;2024-01-10T06:26:59;2.15;;;1.95;;
59239;SDS011;45010;53.640;10.578;2024-01-10T06:29:59;1.50;;;1.40;;
59239;SDS011;45010;53.640;10.578;2024-01-10T06:32:59;1.58;;;1.48;;
59239;SDS011;45010;53.640;10.578;2024-01-10T06:35:59;1.42;;;1.33;;
59239;SDS011;45010;53.640;10.578;2024-01-10T06:39:00;1.70;;;1.60;;
59239;SDS011;45010;53.640;10.578;2024-01-10T06:42:01;1.90;;;1.60;;
59239;SDS011;45010;53.640;10.578;2024-01-10T06:45:03;1.60;;;1.50;;
59239;SDS011;45010;53.640;10.578;2024-01-10T06:48:07;1.75;;;1.20;;
59239;SDS011;45010;53.640;10.578;2024-01-10T06:51:12;1.63;;;1.48;;
59239;SDS011;45010;53.640;10.578;2024-01-10T06:54:13;2.63;;;1.52;;
59239;SDS011;45010;53.640;10.578;2024-01-10T06:57:14;1.65;;;1.55;;
59239;SDS011;45010;53.640;10.578;2024-01-10T07:00:14;1.52;;;1.40;;
59239;SDS011;45010;53.640;10.578;2024-01-10T07:03:15;1.27;;;1.17;;
59239;SDS011;45010;53.640;10.578;2024-01-10T07:06:15;1.40;;;1.30;;
59239;SDS011;45010;53.640;10.578;2024-01-10T07:09:16;1.40;;;1.30;;
59239;SDS011;45010;53.640;10.578;2024-01-10T07:12:19;1.55;;;1.45;;
59239;SDS011;45010;53.640;10.578;2024-01-10T07:15:20;1.38;;;1.08;;
59239;SDS011;45010;53.640;10.578;2024-01-10T07:18:20;1.52;;;1.42;;
59239;SDS011;45010;53.640;10.578;2024-01-10T07:21:20;1.58;;;1.30;;
59239;SDS011;45010;53.640;10.578;2024-01-10T07:24:21;1.33;;;1.23;;
59239;SDS011;45010;53.640;10.578;2024-01-10T07:27:21;1.30;;;1.20;;
59239;SDS011;45010;53.640;10.578;2024-01-10T07:30:21;1.75;;;1.45;;
59239;SDS011;45010;53.640;10.578;2024-01-10T07:33:22;4.53;;;1.30;;
59239;SDS011;45010;53.640;10.578;2024-01-10T07:36:25;1.35;;;1.13;;
59239;SDS011;45010;53.640;10.578;2024-01-10T07:39:26;1.33;;;1.23;;
59239;SDS011;45010;53.640;10.578;2024-01-10T07:42:26;1.38;;;1.27;;
59239;SDS011;45010;53.640;10.578;2024-01-10T07:45:27;1.20;;;1.10;;
59239;SDS011;45010;53.640;10.578;2024-01-10T07:48:27;1.20;;;1.10;;
59239;SDS011;45010;53.640;10.578;2024-01-10T07:51:28;1.67;;;1.23;;
59239;SDS011;45010;53.640;10.578;2024-01-10T07:54:28;1.83;;;1.15;;
59239;SDS011;45010;53.640;10.578;2024-01-10T07:57:28;1.35;;;1.15;;
59239;SDS011;45010;53.640;10.578;2024-01-10T08:00:29;2.42;;;1.30;;
59239;SDS011;45010;53.640;10.578;2024-01-10T08:03:30;1.52;;;1.30;;
59239;SDS011;45010;53.640;10.578;2024-01-10T08:06:30;2.83;;;1.20;;
59239;SDS011;45010;53.640;10.578;2024-01-10T08:09:30;2.13;;;1.50;;
59239;SDS011;45010;53.640;10.578;2024-01-10T08:12:31;2.30;;;1.48;;
59239;SDS011;45010;53.640;10.578;2024-01-10T08:15:31;1.48;;;1.23;;
59239;SDS011;45010;53.640;10.578;2024-01-10T08:18:34;5.32;;;1.48;;
59239;SDS011;45010;53.640;10.578;2024-01-10T08:21:34;1.40;;;1.27;;
59239;SDS011;45010;53.640;10.578;2024-01-10T08:24:35;2.42;;;1.30;;
59239;SDS011;45010;53.640;10.578;2024-01-10T08:27:35;1.55;;;1.42;;
59239;SDS011;45010;53.640;10.578;2024-01-10T08:30:36;4.68;;;1.80;;
59239;SDS011;45010;53.640;10.578;2024-01-10T08:33:36;3.67;;;1.33;;
59239;SDS011;45010;53.640;10.578;2024-01-10T08:36:36;2.35;;;1.58;;
59239;SDS011;45010;53.640;10.578;2024-01-10T08:39:37;2.95;;;1.55;;
59239;SDS011;45010;53.640;10.578;2024-01-10T08:42:37;1.35;;;1.25;;
59239;SDS011;45010;53.640;10.578;2024-01-10T08:45:38;4.78;;;1.48;;
59239;SDS011;45010;53.640;10.578;2024-01-10T08:48:38;1.67;;;1.45;;
59239;SDS011;45010;53.640;10.578;2024-01-10T08:51:39;2.33;;;1.30;;
59239;SDS011;45010;53.640;10.578;2024-01-10T08:54:40;3.35;;;1.42;;
59239;SDS011;45010;53.640;10.578;2024-01-10T08:57:41;3.45;;;1.55;;
59239;SDS011;45010;53.640;10.578;2024-01-10T09:00:41;2.42;;;1.30;;
59239;SDS011;45010;53.640;10.578;2024-01-10T09:03:41;2.47;;;1.42;;
59239;SDS011;45010;53.640;10.578;2024-01-10T09:06:42;3.15;;;1.30;;
59239;SDS011;45010;53.640;10.578;2024-01-10T09:09:42;1.55;;;1.33;;
59239;SDS011;45010;53.640;10.578;2024-01-10T09:12:42;1.77;;;1.65;;
59239;SDS011;45010;53.640;10.578;2024-01-10T09:15:45;1.73;;;1.40;;
59239;SDS011;45010;53.640;10.578;2024-01-10T09:18:46;1.88;;;1.30;;
59239;SDS011;45010;53.640;10.578;2024-01-10T09:21:46;2.30;;;1.45;;
59239;SDS011;45010;53.640;10.578;2024-01-10T09:24:48;1.75;;;1.30;;
59239;SDS011;45010;53.640;10.578;2024-01-10T09:27:48;1.35;;;1.10;;
59239;SDS011;45010;53.640;10.578;2024-01-10T09:30:49;1.13;;;1.02;;
59239;SDS011;45010;53.640;10.578;2024-01-10T09:33:51;1.30;;;1.20;;
59239;SDS011;45010;53.640;10.578;2024-01-10T09:36:51;1.52;;;1.15;;
59239;SDS011;45010;53.640;10.578;2024-01-10T09:39:52;1.75;;;1.30;;
59239;SDS011;45010;53.640;10.578;2024-01-10T09:42:53;1.38;;;1.15;;
59239;SDS011;45010;53.640;10.578;2024-01-10T09:45:57;1.40;;;1.10;;
59239;SDS011;45010;53.640;10.578;2024-01-10T09:48:58;1.85;;;1.23;;
59239;SDS011;45010;53.640;10.578;2024-01-10T09:51:59;1.42;;;1.00;;
59239;SDS011;45010;53.640;10.578;2024-01-10T09:55:04;1.48;;;1.15;;
59239;SDS011;45010;53.640;10.578;2024-01-10T09:58:05;2.40;;;1.20;;
59239;SDS011;45010;53.640;10.578;2024-01-10T10:01:06;1.50;;;1.17;;
59239;SDS011;45010;53.640;10.578;2024-01-10T10:04:06;1.75;;;1.13;;
59239;SDS011;45010;53.640;10.578;2024-01-10T10:07:09;1.77;;;1.05;;
59239;SDS011;45010;53.640;10.578;2024-01-10T10:10:09;1.27;;;1.10;;
59239;SDS011;45010;53.640;10.578;2024-01-10T10:13:11;1.35;;;1.10;;
59239;SDS011;45010;53.640;10.578;2024-01-10T10:16:25;1.65;;;0.90;;
59239;SDS011;45010;53.640;10.578;2024-01-10T10:19:26;1.17;;;1.08;;
59239;SDS011;45010;53.640;10.578;2024-01-10T10:22:26;1.20;;;1.10;;
59239;SDS011;45010;53.640;10.578;2024-01-10T10:25:27;1.00;;;0.90;;
59239;SDS011;45010;53.640;10.578;2024-01-10T10:28:29;0.98;;;0.85;;
59239;SDS011;45010;53.640;10.578;2024-01-10T10:31:31;1.30;;;1.00;;
59239;SDS011;45010;53.640;10.578;2024-01-10T10:34:32;1.05;;;0.90;;
59239;SDS011;45010;53.640;10.578;2024-01-10T10:37:32;1.10;;;1.00;;
59239;SDS011;45010;53.640;10.578;2024-01-10T10:40:33;1.25;;;1.00;;
59239;SDS011;45010;53.640;10.578;2024-01-10T10:43:36;0.80;;;0.80;;
59239;SDS011;45010;53.640;10.578;2024-01-10T10:46:38;1.23;;;0.93;;
59239;SDS011;45010;53.640;10.578;2024-01-10T10:49:42;1.27;;;1.08;;
59239;SDS011;45010;53.640;10.578;2024-01-10T10:52:48;4.20;;;1.30;;
59239;SDS011;45010;53.640;10.578;2024-01-10T10:55:50;3.58;;;1.20;;
59239;SDS011;45010;53.640;10.578;2024-01-10T10:58:52;1.27;;;1.02;;
59239;SDS011;45010;53.640;10.578;2024-01-10T11:01:53;4.32;;;1.13;;
59239;SDS011;45010;53.640;10.578;2024-01-10T11:04:55;5.15;;;1.23;;
59239;SDS011;45010;53.640;10.578;2024-01-10T11:07:56;2.17;;;0.90;;
59239;SDS011;45010;53.640;10.578;2024-01-10T11:10:57;1.70;;;1.10;;
59239;SDS011;45010;53.640;10.578;2024-01-10T11:14:09;2.03;;;1.10;;
59239;SDS011;45010;53.640;10.578;2024-01-10T11:24:06;1.90;;;1.23;;
59239;SDS011;45010;53.640;10.578;2024-01-10T11:27:13;1.42;;;1.00;;
59239;SDS011;45010;53.640;10.578;2024-01-10T11:30:25;1.00;;;0.93;;
59239;SDS011;45010;53.640;10.578;2024-01-10T11:33:42;2.28;;;1.00;;
59239;SDS011;45010;53.640;10.578;2024-01-10T11:37:38;2.90;;;1.48;;
59239;SDS011;45010;53.640;10.578;2024-01-10T11:40:13;1.00;;;0.90;;
59239;SDS011;45010;53.640;10.578;2024-01-10T11:43:14;1.55;;;1.02;;
59239;SDS011;45010;53.640;10.578;2024-01-10T11:46:14;2.10;;;1.10;;
59239;SDS011;45010;53.640;10.578;2024-01-10T11:49:16;2.30;;;1.20;;
59239;SDS011;45010;53.640;10.578;2024-01-10T11:52:17;1.35;;;1.00;;
59239;SDS011;45010;53.640;10.578;2024-01-10T11:58:55;2.47;;;1.40;;
59239;SDS011;45010;53.640;10.578;2024-01-10T12:02:05;1.48;;;1.10;;
59239;SDS011;45010;53.640;10.578;2024-01-10T12:05:05;1.52;;;1.30;;
59239;SDS011;45010;53.640;10.578;2024-01-10T12:08:07;2.72;;;1.55;;
59239;SDS011;45010;53.640;10.578;2024-01-10T12:11:08;2.70;;;1.15;;
59239;SDS011;45010;53.640;10.578;2024-01-10T12:14:08;2.38;;;1.40;;
59239;SDS011;45010;53.640;10.578;2024-01-10T12:17:09;3.15;;;1.50;;
59239;SDS011;45010;53.640;10.578;2024-01-10T12:20:09;2.65;;;1.38;;
59239;SDS011;45010;53.640;10.578;2024-01-10T12:23:10;1.83;;;1.15;;
59239;SDS011;45010;53.640;10.578;2024-01-10T12:26:11;1.55;;;1.10;;
59239;SDS011;45010;53.640;10.578;2024-01-10T12:29:16;2.53;;;1.38;;
59239;SDS011;45010;53.640;10.578;2024-01-10T12:32:21;2.40;;;1.33;;
59239;SDS011;45010;53.640;10.578;2024-01-10T12:35:22;1.92;;;1.38;;
59239;SDS011;45010;53.640;10.578;2024-01-10T12:38:22;1.63;;;1.52;;
59239;SDS011;45010;53.640;10.578;2024-01-10T12:41:23;2.78;;;1.25;;
59239;SDS011;45010;53.640;10.578;2024-01-10T12:44:26;3.35;;;1.40;;
59239;SDS011;45010;53.640;10.578;2024-01-10T12:47:27;2.75;;;1.60;;
59239;SDS011;45010;53.640;10.578;2024-01-10T12:50:28;1.85;;;1.30;;
59239;SDS011;45010;53.640;10.578;2024-01-10T12:53:28;1.38;;;1.27;;
59239;SDS011;45010;53.640;10.578;2024-01-10T12:56:29;1.35;;;1.25;;
59239;SDS011;45010;53.640;10.578;2024-01-10T12:59:30;1.50;;;1.30;;
59239;SDS011;45010;53.640;10.578;2024-01-10T13:02:30;1.38;;;1.27;;
59239;SDS011;45010;53.640;10.578;2024-01-10T13:05:31;1.50;;;1.40;;
59239;SDS011;45010;53.640;10.578;2024-01-10T13:08:32;1.58;;;1.27;;
59239;SDS011;45010;53.640;10.578;2024-01-10T13:11:32;1.67;;;1.10;;
59239;SDS011;45010;53.640;10.578;2024-01-10T13:14:32;1.48;;;1.10;;
59239;SDS011;45010;53.640;10.578;2024-01-10T13:17:33;1.70;;;1.38;;
59239;SDS011;45010;53.640;10.578;2024-01-10T13:20:33;2.30;;;1.67;;
59239;SDS011;45010;53.640;10.578;2024-01-10T13:23:33;1.55;;;1.15;;
59239;SDS011;45010;53.640;10.578;2024-01-10T13:26:34;2.10;;;1.50;;
59239;SDS011;45010;53.640;10.578;2024-01-10T13:29:35;1.48;;;1.30;;
59239;SDS011;45010;53.640;10.578;2024-01-10T13:32:37;1.77;;;1.48;;
59239;SDS011;45010;53.640;10.578;2024-01-10T13:35:37;2.45;;;1.60;;
59239;SDS011;45010;53.640;10.578;2024-01-10T13:38:38;1.65;;;1.40;;
59239;SDS011;45010;53.640;10.578;2024-01-10T13:41:38;1.55;;;1.33;;
59239;SDS011;45010;53.640;10.578;2024-01-10T13:44:39;1.98;;;1.42;;
59239;SDS011;45010;53.640;10.578;2024-01-10T13:47:39;1.90;;;1.45;;
59239;SDS011;45010;53.640;10.578;2024-01-10T13:50:40;1.58;;;1.40;;
59239;SDS011;45010;53.640;10.578;2024-01-10T13:53:40;2.03;;;1.75;;
59239;SDS011;45010;53.640;10.578;2024-01-10T13:56:40;2.35;;;1.65;;
59239;SDS011;45010;53.640;10.578;2024-01-10T13:59:40;1.45;;;1.35;;
59239;SDS011;45010;53.640;10.578;2024-01-10T14:02:44;2.13;;;1.40;;
59239;SDS011;45010;53.640;10.578;2024-01-10T14:05:44;1.48;;;1.27;;
59239;SDS011;45010;53.640;10.578;2024-01-10T14:08:45;1.85;;;1.67;;
59239;SDS011;45010;53.640;10.578;2024-01-10T14:11:47;1.67;;;1.58;;
59239;SDS011;45010;53.640;10.578;2024-01-10T14:14:49;1.50;;;1.27;;
59239;SDS011;45010;53.640;10.578;2024-01-10T14:17:50;1.63;;;1.42;;
59239;SDS011;45010;53.640;10.578;2024-01-10T14:20:51;1.63;;;1.52;;
59239;SDS011;45010;53.640;10.578;2024-01-10T14:23:51;2.88;;;1.90;;
59239;SDS011;45010;53.640;10.578;2024-01-10T14:26:52;2.72;;;1.52;;
59239;SDS011;45010;53.640;10.578;2024-01-10T14:29:52;2.75;;;1.70;;
59239;SDS011;45010;53.640;10.578;2024-01-10T14:32:52;2.30;;;1.77;;
59239;SDS011;45010;53.640;10.578;2024-01-10T14:35:53;1.90;;;1.65;;
59239;SDS011;45010;53.640;10.578;2024-01-10T14:38:53;2.22;;;1.70;;
59239;SDS011;45010;53.640;10.578;2024-01-10T14:41:55;2.75;;;1.83;;
59239;SDS011;45010;53.640;10.578;2024-01-10T14:44:55;2.35;;;1.67;;
59239;SDS011;45010;53.640;10.578;2024-01-10T14:47:55;3.53;;;1.80;;
59239;SDS011;45010;53.640;10.578;2024-01-10T14:50:56;2.83;;;1.95;;
59239;SDS011;45010;53.640;10.578;2024-01-10T14:53:56;2.17;;;1.70;;
59239;SDS011;45010;53.640;10.578;2024-01-10T14:56:57;2.45;;;1.83;;
59239;SDS011;45010;53.640;10.578;2024-01-10T14:59:57;3.20;;;1.83;;
59239;SDS011;45010;53.640;10.578;2024-01-10T15:02:57;2.60;;;1.83;;
59239;SDS011;45010;53.640;10.578;2024-01-10T15:05:57;2.00;;;1.70;;
59239;SDS011;45010;53.640;10.578;2024-01-10T15:08:58;2.20;;;1.80;;
59239;SDS011;45010;53.640;10.578;2024-01-10T15:11:58;2.90;;;2.10;;
59239;SDS011;45010;53.640;10.578;2024-01-10T15:14:59;3.05;;;2.35;;
59239;SDS011;45010;53.640;10.578;2024-01-10T15:18:02;2.53;;;1.80;;
59239;SDS011;45010;53.640;10.578;2024-01-10T15:21:02;2.10;;;1.70;;
59239;SDS011;45010;53.640;10.578;2024-01-10T15:24:05;1.85;;;1.52;;
59239;SDS011;45010;53.640;10.578;2024-01-10T15:27:06;1.92;;;1.67;;
59239;SDS011;45010;53.640;10.578;2024-01-10T15:30:08;2.55;;;2.17;;
59239;SDS011;45010;53.640;10.578;2024-01-10T15:33:09;1.70;;;1.60;;
59239;SDS011;45010;53.640;10.578;2024-01-10T15:36:11;1.50;;;1.40;;
59239;SDS011;45010;53.640;10.578;2024-01-10T15:39:12;1.83;;;1.63;;
59239;SDS011;45010;53.640;10.578;2024-01-10T15:42:13;2.15;;;1.90;;
59239;SDS011;45010;53.640;10.578;2024-01-10T15:45:13;1.70;;;1.60;;
59239;SDS011;45010;53.640;10.578;2024-01-10T15:48:14;2.15;;;1.70;;
59239;SDS011;45010;53.640;10.578;2024-01-10T15:51:14;2.78;;;1.70;;
59239;SDS011;45010;53.640;10.578;2024-01-10T15:54:15;2.60;;;1.63;;
59239;SDS011;45010;53.640;10.578;2024-01-10T15:57:16;2.05;;;1.50;;
59239;SDS011;45010;53.640;10.578;2024-01-10T16:00:17;2.03;;;1.77;;
59239;SDS011;45010;53.640;10.578;2024-01-10T16:03:17;1.75;;;1.52;;
59239;SDS011;45010;53.640;10.578;2024-01-10T16:06:18;2.03;;;1.63;;
59239;SDS011;45010;53.640;10.578;2024-01-10T16:09:18;2.08;;;1.73;;
59239;SDS011;45010;53.640;10.578;2024-01-10T16:12:19;3.05;;;1.52;;
59239;SDS011;45010;53.640;10.578;2024-01-10T16:15:21;2.10;;;1.90;;
59239;SDS011;45010;53.640;10.578;2024-01-10T16:18:22;2.05;;;1.70;;
59239;SDS011;45010;53.640;10.578;2024-01-10T16:21:22;2.05;;;1.40;;
59239;SDS011;45010;53.640;10.578;2024-01-10T16:24:23;2.58;;;1.55;;
59239;SDS011;45010;53.640;10.578;2024-01-10T16:27:23;2.15;;;1.40;;
59239;SDS011;45010;53.640;10.578;2024-01-10T16:30:24;2.88;;;1.80;;
59239;SDS011;45010;53.640;10.578;2024-01-10T16:33:24;2.20;;;1.55;;
59239;SDS011;45010;53.640;10.578;2024-01-10T16:36:24;2.28;;;1.45;;
59239;SDS011;45010;53.640;10.578;2024-01-10T16:39:25;1.75;;;1.58;;
59239;SDS011;45010;53.640;10.578;2024-01-10T16:42:25;1.75;;;1.65;;
59239;SDS011;45010;53.640;10.578;2024-01-10T16:45:26;2.30;;;1.52;;
59239;SDS011;45010;53.640;10.578;2024-01-10T16:48:26;1.75;;;1.60;;
59239;SDS011;45010;53.640;10.578;2024-01-10T16:51:27;2.25;;;1.58;;
59239;SDS011;45010;53.640;10.578;2024-01-10T16:54:27;1.90;;;1.73;;
59239;SDS011;45010;53.640;10.578;2024-01-10T16:57:27;2.72;;;1.65;;
59239;SDS011;45010;53.640;10.578;2024-01-10T17:00:28;2.30;;;1.50;;
59239;SDS011;45010;53.640;10.578;2024-01-10T17:03:28;2.92;;;1.70;;
59239;SDS011;45010;53.640;10.578;2024-01-10T17:06:29;3.25;;;1.65;;
59239;SDS011;45010;53.640;10.578;2024-01-10T17:09:29;2.88;;;1.60;;
59239;SDS011;45010;53.640;10.578;2024-01-10T17:12:30;1.77;;;1.60;;
59239;SDS011;45010;53.640;10.578;2024-01-10T17:15:30;1.83;;;1.40;;
59239;SDS011;45010;53.640;10.578;2024-01-10T17:18:31;1.77;;;1.63;;
59239;SDS011;45010;53.640;10.578;2024-01-10T17:21:31;3.00;;;1.40;;
59239;SDS011;45010;53.640;10.578;2024-01-10T17:24:31;2.08;;;1.50;;
59239;SDS011;45010;53.640;10.578;2024-01-10T17:27:32;2.58;;;1.50;;
59239;SDS011;45010;53.640;10.578;2024-01-10T17:30:32;3.08;;;1.60;;
59239;SDS011;45010;53.640;10.578;2024-01-10T17:33:33;1.73;;;1.17;;
59239;SDS011;45010;53.640;10.578;2024-01-10T17:36:34;1.88;;;1.42;;
59239;SDS011;45010;53.640;10.578;2024-01-10T17:39:38;2.17;;;1.50;;
59239;SDS011;45010;53.640;10.578;2024-01-10T17:42:38;1.40;;;1.25;;
59239;SDS011;45010;53.640;10.578;2024-01-10T17:45:38;1.38;;;1.25;;
59239;SDS011;45010;53.640;10.578;2024-01-10T17:48:39;1.98;;;1.73;;
59239;SDS011;45010;53.640;10.578;2024-01-10T17:51:39;1.88;;;1.60;;
59239;SDS011;45010;53.640;10.578;2024-01-10T17:54:39;2.05;;;1.70;;
59239;SDS011;45010;53.640;10.578;2024-01-10T17:57:40;2.78;;;1.15;;
59239;SDS011;45010;53.640;10.578;2024-01-10T18:00:40;2.20;;;1.23;;
59239;SDS011;45010;53.640;10.578;2024-01-10T18:03:40;1.40;;;1.23;;